KIPL

Details ICAO KIPL (IPL)
Name IMPERIAL CO
Region United States
Timezone America/Los_Angeles (UTC-8.0)
Plans Departing 17
Arriving 6
Stats Elevation -54 ft / -16 m (AMSL)
Location 32.834066° -115.579060°
Runways 2
Magnetic Variation 11.184° E
Sunrise 2017-12-13 14:37:46 UTC / 2017-12-13 06:37:46 Local
Sunset 2017-12-14 00:38:24 UTC / 2017-12-13 16:38:24 Local
Advertisement - Login to hide

Runways

ID Width Length Bearing (true) Bearing (mag) Surface Threshold Offset Overrun Length
08 75 ft / 23 m 4,492 ft / 1,369 m 89.97° 78.79° Asphalt 0 ft / 0 m 0 ft / 0 m
14 100 ft / 30 m 5,314 ft / 1,620 m 152.81° 141.63° Asphalt 0 ft / 0 m 0 ft / 0 m
26 75 ft / 23 m 4,492 ft / 1,369 m 269.98° 258.80° Asphalt 0 ft / 0 m 0 ft / 0 m
32 100 ft / 30 m 5,314 ft / 1,620 m 332.81° 321.63° Asphalt 0 ft / 0 m 0 ft / 0 m

Map

Weather


0- 5 10 15 20 25 30 35+ Temperature / ° C

Clouds and Precipitation
Forecast for 2017-12-13 18:00 UTC. Updated 2 hours ago

Ground ~20,000 ft ~40,000 ft Winds

METAR

KIPL 131653Z AUTO 00000KT 10SM CLR 13/M07 A3005 RMK AO2 SLP175 T01331072 TSNO

TAF

KIPL 131135Z 1312/1412 28006KT P6SM FEW250 FM131400 VRB04KT P6SM FEW250 FM140300 27005KT P6SM FEW250

Frequencies

Recorded 132.17 MHz ASOS
Unicom 122.70 MHz CTAF/UNICOM
Warning: Do not use this data for real-world aviation or navigation. No guarantee of current accuracy is given.